createdAt,value
2018-12-22T00:02:54.030Z,10.20
2018-12-22T00:07:54.876Z,10.20
2018-12-22T00:12:55.716Z,10.20
2018-12-22T00:23:40.944Z,10.10
2018-12-22T00:28:41.760Z,10.10
2018-12-22T00:33:42.514Z,10.10
2018-12-22T00:38:43.201Z,10.10
2018-12-22T00:43:44.067Z,10.10
2018-12-22T00:48:44.869Z,10.10
2018-12-22T00:53:45.760Z,10.00
2018-12-22T00:58:48.241Z,10.00
2018-12-22T01:03:48.958Z,9.90
2018-12-22T01:08:49.792Z,10.00
2018-12-22T01:13:50.564Z,9.90
2018-12-22T01:18:51.207Z,9.90
2018-12-22T01:23:52.030Z,10.00
2018-12-22T01:28:52.818Z,9.90
2018-12-22T01:33:53.600Z,9.90
2018-12-22T01:38:54.414Z,9.90
2018-12-22T01:43:55.183Z,9.90
2018-12-22T01:48:56.041Z,9.90
2018-12-22T01:53:57.751Z,9.80
2018-12-22T01:58:58.529Z,9.90
2018-12-22T02:03:59.237Z,9.90
2018-12-22T02:09:00.066Z,9.90
2018-12-22T02:14:00.716Z,9.90
2018-12-22T02:19:01.560Z,9.90
2018-12-22T02:24:02.263Z,9.90
2018-12-22T02:29:03.016Z,9.90
2018-12-22T02:34:03.795Z,9.80
2018-12-22T02:39:06.268Z,9.90
2018-12-22T02:44:07.162Z,9.90
2018-12-22T02:49:07.942Z,9.90
2018-12-22T02:54:08.750Z,9.90
2018-12-22T02:59:09.521Z,9.90
2018-12-22T03:04:10.159Z,9.90
2018-12-22T03:09:11.009Z,9.90
2018-12-22T03:14:11.759Z,9.90
2018-12-22T03:19:12.599Z,9.90
2018-12-22T03:24:13.416Z,9.90
2018-12-22T03:29:15.785Z,9.90
2018-12-22T03:34:17.037Z,9.90
2018-12-22T03:39:18.045Z,9.90
2018-12-22T03:44:18.849Z,9.90
2018-12-22T03:49:19.642Z,9.90
2018-12-22T03:54:20.474Z,9.90
2018-12-22T03:59:24.936Z,9.90
2018-12-22T04:04:24.006Z,9.90
2018-12-22T04:09:25.076Z,9.90
2018-12-22T04:14:26.028Z,9.90
2018-12-22T04:19:27.253Z,9.90
2018-12-22T04:24:28.269Z,10.00
2018-12-22T04:29:33.824Z,10.00
2018-12-22T04:34:32.039Z,10.00
2018-12-22T04:39:32.859Z,10.00
2018-12-22T04:44:33.588Z,10.00
2018-12-22T04:49:34.395Z,10.10
2018-12-22T04:54:35.298Z,10.00
2018-12-22T04:59:43.035Z,10.00
2018-12-22T05:04:38.674Z,10.10
2018-12-22T05:09:39.518Z,10.10
2018-12-22T05:14:40.309Z,10.10
2018-12-22T05:19:41.139Z,10.10
2018-12-22T05:24:41.940Z,10.10
2018-12-22T05:29:47.958Z,10.20
2018-12-22T05:34:45.446Z,10.30
2018-12-22T05:39:46.206Z,10.40
2018-12-22T05:44:47.054Z,10.40
2018-12-22T05:49:47.864Z,10.40
2018-12-22T05:54:48.633Z,10.40
2018-12-22T05:59:49.408Z,10.40
2018-12-22T06:04:50.209Z,10.50
2018-12-22T06:09:52.059Z,10.50
2018-12-22T06:14:52.813Z,10.50
2018-12-22T06:19:53.795Z,10.50
2018-12-22T06:24:54.623Z,10.50
2018-12-22T06:29:55.375Z,10.50
2018-12-22T06:34:56.195Z,10.50
2018-12-22T06:39:56.920Z,10.50
2018-12-22T06:44:57.752Z,10.50
2018-12-22T06:49:58.538Z,10.50
2018-12-22T06:54:59.420Z,10.40
2018-12-22T07:00:00.221Z,10.40
2018-12-22T07:05:02.430Z,10.40
2018-12-22T07:10:04.957Z,10.40
2018-12-22T07:15:06.311Z,10.40
2018-12-22T07:20:07.952Z,10.40
2018-12-22T07:25:09.907Z,10.40
2018-12-22T07:30:10.956Z,10.40
2018-12-22T07:35:11.959Z,10.40
2018-12-22T07:40:12.653Z,10.40
2018-12-22T07:45:13.521Z,10.40
2018-12-22T07:50:14.335Z,10.40
2018-12-22T07:55:15.151Z,10.40
2018-12-22T08:00:16.034Z,10.30
2018-12-22T08:05:16.885Z,10.10
2018-12-22T08:10:17.753Z,10.00
2018-12-22T08:15:18.423Z,10.00
2018-12-22T08:20:19.190Z,9.90
2018-12-22T08:25:19.849Z,9.90
2018-12-22T08:30:20.647Z,9.90
2018-12-22T08:35:21.440Z,9.90
2018-12-22T08:40:22.321Z,9.90
2018-12-22T08:45:23.239Z,9.90
2018-12-22T08:50:24.094Z,9.90
2018-12-22T08:55:24.943Z,9.80
2018-12-22T09:00:25.651Z,9.80
2018-12-22T09:05:26.450Z,9.80
2018-12-22T09:10:27.436Z,9.70
2018-12-22T09:15:28.697Z,9.60
2018-12-22T09:20:31.704Z,9.50
2018-12-22T09:25:32.363Z,9.30
2018-12-22T09:30:33.278Z,9.20
2018-12-22T09:35:34.126Z,9.20
2018-12-22T09:40:34.820Z,9.10
2018-12-22T09:45:37.728Z,9.10
2018-12-22T09:50:38.676Z,9.00
2018-12-22T09:55:39.497Z,9.00
2018-12-22T10:00:40.279Z,8.90
2018-12-22T10:05:43.908Z,8.90
2018-12-22T10:10:44.765Z,8.90
2018-12-22T10:15:45.536Z,8.80
2018-12-22T10:20:46.385Z,8.70
2018-12-22T10:25:47.241Z,8.70
2018-12-22T10:30:48.218Z,8.70
2018-12-22T10:35:50.116Z,8.60
2018-12-22T10:40:50.878Z,8.70
2018-12-22T10:45:51.784Z,8.70
2018-12-22T10:50:52.618Z,8.80
2018-12-22T10:55:53.403Z,8.90
2018-12-22T11:00:54.217Z,8.90
2018-12-22T11:05:55.098Z,8.90
2018-12-22T11:10:55.899Z,8.90
2018-12-22T11:15:56.595Z,8.90
2018-12-22T11:20:57.372Z,8.90
2018-12-22T11:25:58.138Z,8.90
2018-12-22T11:30:59.066Z,8.90
2018-12-22T11:36:00.045Z,8.90
2018-12-22T11:41:00.788Z,8.90
2018-12-22T11:46:02.646Z,8.80
2018-12-22T11:51:03.478Z,8.80
2018-12-22T11:56:04.365Z,8.80
2018-12-22T12:01:05.138Z,8.90
2018-12-22T12:06:05.848Z,8.90
2018-12-22T12:11:06.739Z,8.80
2018-12-22T12:18:21.497Z,8.70
2018-12-22T12:23:22.398Z,8.70
2018-12-22T12:28:23.237Z,8.70
2018-12-22T12:33:24.072Z,8.70
2018-12-22T12:38:24.981Z,8.70
2018-12-22T12:43:25.828Z,8.70
2018-12-22T12:48:27.370Z,8.70
2018-12-22T12:53:28.324Z,8.70
2018-12-22T12:58:29.113Z,8.70
2018-12-22T13:03:29.987Z,8.70
2018-12-22T13:08:30.715Z,8.80
2018-12-22T13:13:40.616Z,8.80
2018-12-22T13:18:41.460Z,8.90
2018-12-22T13:23:42.250Z,8.90
2018-12-22T13:28:42.960Z,8.90
2018-12-22T13:33:43.798Z,8.80
2018-12-22T13:38:50.901Z,8.80
2018-12-22T13:43:51.688Z,8.80
2018-12-22T13:48:52.419Z,8.80
2018-12-22T14:04:54.008Z,8.80
2018-12-22T14:10:07.507Z,8.80
2018-12-22T14:15:15.653Z,8.80
2018-12-22T14:20:18.234Z,8.90
2018-12-22T14:25:23.230Z,8.90
2018-12-22T14:30:23.955Z,8.90
2018-12-22T14:35:37.786Z,8.90
2018-12-22T14:40:45.061Z,9.00
2018-12-22T14:46:10.094Z,9.00
2018-12-22T14:51:14.066Z,9.00
2018-12-22T14:56:15.494Z,8.90
2018-12-22T15:01:16.640Z,8.90
2018-12-22T15:06:17.965Z,8.80
2018-12-22T15:11:18.725Z,8.80
2018-12-22T15:16:19.602Z,8.80
2018-12-22T15:21:20.969Z,8.70
2018-12-22T15:26:21.692Z,8.70
2018-12-22T15:31:22.505Z,8.70
2018-12-22T15:36:23.343Z,8.60
2018-12-22T15:41:24.109Z,8.60
2018-12-22T15:52:00.316Z,8.60
2018-12-22T15:57:01.131Z,8.50
2018-12-22T16:02:01.970Z,8.50
2018-12-22T16:07:02.727Z,8.40
2018-12-22T16:12:03.423Z,8.40
2018-12-22T16:17:04.353Z,8.20
2018-12-22T16:22:05.112Z,8.20
2018-12-22T16:27:05.915Z,8.20
2018-12-22T16:32:06.785Z,8.20
2018-12-22T16:37:07.654Z,8.10
2018-12-22T16:42:08.739Z,8.10
2018-12-22T16:47:09.586Z,8.10
2018-12-22T16:52:10.477Z,8.00
2018-12-22T16:57:11.192Z,8.00
2018-12-22T17:02:24.956Z,8.00
2018-12-22T17:07:25.805Z,8.00
2018-12-22T17:12:26.691Z,8.00
2018-12-22T17:17:27.576Z,7.90
2018-12-22T17:22:45.042Z,7.90
2018-12-22T17:27:45.909Z,7.80
2018-12-22T17:32:46.844Z,7.80
2018-12-22T17:37:47.641Z,7.80
2018-12-22T17:42:48.452Z,7.80
2018-12-22T17:47:49.260Z,7.70
2018-12-22T17:52:50.027Z,7.70
2018-12-22T17:57:50.840Z,7.70
2018-12-22T18:02:51.621Z,7.70
2018-12-22T18:07:52.382Z,7.70
2018-12-22T18:12:53.132Z,7.70
2018-12-22T18:17:54.119Z,7.70
2018-12-22T18:22:54.818Z,7.80
2018-12-22T18:27:55.797Z,7.70
2018-12-22T18:32:56.504Z,7.70
2018-12-22T18:37:57.973Z,7.70
2018-12-22T18:42:58.635Z,7.70
2018-12-22T18:47:59.422Z,7.80
2018-12-22T18:53:00.292Z,7.80
2018-12-22T18:58:02.853Z,7.70
2018-12-22T19:03:03.716Z,7.70
2018-12-22T19:08:09.263Z,7.70
2018-12-22T19:13:10.291Z,7.70
2018-12-22T19:18:11.150Z,7.70
2018-12-22T19:23:12.875Z,7.80
2018-12-22T19:28:13.826Z,7.80
2018-12-22T19:33:14.608Z,7.80
2018-12-22T19:38:17.192Z,7.80
2018-12-22T19:43:18.541Z,7.80
2018-12-22T19:48:19.321Z,7.80
2018-12-22T19:53:20.180Z,7.80
2018-12-22T19:58:21.048Z,7.80
2018-12-22T20:03:21.865Z,7.80
2018-12-22T20:08:22.803Z,7.80
2018-12-22T20:13:23.744Z,7.80
2018-12-22T20:18:24.542Z,7.80
2018-12-22T20:23:25.337Z,7.70
2018-12-22T20:28:26.181Z,7.70
2018-12-22T20:33:26.965Z,7.70
2018-12-22T20:38:27.855Z,7.80
2018-12-22T20:43:28.734Z,7.70
2018-12-22T20:48:29.472Z,7.70
2018-12-22T20:53:30.419Z,7.70
2018-12-22T20:58:31.210Z,7.80
2018-12-22T21:03:39.879Z,7.80
2018-12-22T21:08:40.594Z,7.80
2018-12-22T21:13:41.491Z,7.80
2018-12-22T21:18:42.400Z,7.80
2018-12-22T21:23:47.487Z,7.80
2018-12-22T21:28:48.622Z,7.80
2018-12-22T21:33:53.232Z,7.80
2018-12-22T21:38:54.928Z,7.80
2018-12-22T21:43:55.714Z,7.80
2018-12-22T21:48:56.521Z,7.80
2018-12-22T21:53:57.440Z,7.80
2018-12-22T21:58:58.183Z,7.80
2018-12-22T22:03:59.012Z,7.80
2018-12-22T22:08:59.963Z,7.90
2018-12-22T22:14:00.965Z,7.80
2018-12-22T22:19:04.669Z,7.80
2018-12-22T22:24:05.632Z,7.80
2018-12-22T22:29:06.600Z,7.80
2018-12-22T22:34:07.456Z,7.70
2018-12-22T22:39:08.285Z,7.80
2018-12-22T22:44:09.072Z,7.70
2018-12-22T22:49:09.882Z,7.70
2018-12-22T22:54:10.610Z,7.70
2018-12-22T22:59:11.455Z,7.60
2018-12-22T23:04:12.210Z,7.60
2018-12-22T23:09:13.004Z,7.60
2018-12-22T23:14:13.879Z,7.50
2018-12-22T23:19:14.769Z,7.50
2018-12-22T23:24:15.498Z,7.50
2018-12-22T23:29:16.493Z,7.40
2018-12-22T23:34:17.245Z,7.40
2018-12-22T23:39:18.076Z,7.50
2018-12-22T23:44:21.248Z,7.40
2018-12-22T23:49:25.947Z,7.50
2018-12-22T23:54:26.593Z,7.50
2018-12-22T23:59:27.420Z,7.50
